METAR Data
IDs: Format: Raw Decoded Include TAF

Data at: 1222 UTC 23 Mar 2019

METAR for:PANC (Anchorage Intl, AK, US)
Text:PANC 231153Z 00000KT 10SM SCT070 OVC140 02/00 A2959 RMK AO2 SLP020 4/012 T00170000 10056 20017 53005
Temperature: 1.7°C ( 35°F)
Dewpoint: 0.0°C ( 32°F) [RH = 88%]
Pressure (altimeter):29.59 inches Hg (1002.1 mb) [Sea level pressure: 1002.0 mb]
Winds:calm
Visibility:10 or more sm (16+ km)
Ceiling:14000 feet AGL
Clouds: scattered clouds at 7000 feet AGL, overcast cloud deck at 14000 feet AGL
Text:PANC 231053Z VRB03KT 10SM SCT060 OVC140 02/00 A2958 RMK AO2 SLP019 T00220000
Temperature: 2.2°C ( 36°F)
Dewpoint: 0.0°C ( 32°F) [RH = 85%]
Pressure (altimeter):29.58 inches Hg (1001.8 mb) [Sea level pressure: 1001.9 mb]
Winds:variable direction winds at 3 MPH (3 knots; 1.5 m/s)
Visibility:10 or more sm (16+ km)
Ceiling:14000 feet AGL
Clouds: scattered clouds at 6000 feet AGL, overcast cloud deck at 14000 feet AGL
Text:PANC 230953Z 04006KT 10SM SCT060 BKN140 04/01 A2957 RMK AO2 SLP015 T00390006
Temperature: 3.9°C ( 39°F)
Dewpoint: 0.6°C ( 33°F) [RH = 79%]
Pressure (altimeter):29.57 inches Hg (1001.4 mb) [Sea level pressure: 1001.5 mb]
Winds:from the NE (40 degrees) at 7 MPH (6 knots; 3.1 m/s)
Visibility:10 or more sm (16+ km)
Ceiling:14000 feet AGL
Clouds: scattered clouds at 6000 feet AGL, broken clouds at 14000 feet AGL
Text:PANC 230853Z 00000KT 10SM OVC070 03/01 A2957 RMK AO2 SLP015 T00330006 400940028 53002
Temperature: 3.3°C ( 38°F)
Dewpoint: 0.6°C ( 33°F) [RH = 82%]
Pressure (altimeter):29.57 inches Hg (1001.4 mb) [Sea level pressure: 1001.5 mb]
Winds:calm
Visibility:10 or more sm (16+ km)
Ceiling:7000 feet AGL
Clouds: overcast cloud deck at 7000 feet AGL
Text:PANC 230753Z 15003KT 10SM BKN070 BKN130 OVC250 03/01 A2956 RMK AO2 SLP013 T00330006
Temperature: 3.3°C ( 38°F)
Dewpoint: 0.6°C ( 33°F) [RH = 82%]
Pressure (altimeter):29.56 inches Hg (1001.1 mb) [Sea level pressure: 1001.3 mb]
Winds:from the SSE (150 degrees) at 3 MPH (3 knots; 1.5 m/s)
Visibility:10 or more sm (16+ km)
Ceiling:7000 feet AGL
Clouds: broken clouds at 7000 feet AGL, broken clouds at 13000 feet AGL, overcast cloud deck at 25000 feet AGL
Text:PANC 230653Z VRB04KT 10SM BKN060 BKN130 OVC250 04/01 A2956 RMK AO2 SLP011 T00440011
Temperature: 4.4°C ( 40°F)
Dewpoint: 1.1°C ( 34°F) [RH = 79%]
Pressure (altimeter):29.56 inches Hg (1001.1 mb) [Sea level pressure: 1001.1 mb]
Winds:variable direction winds at 5 MPH (4 knots; 2.1 m/s)
Visibility:10 or more sm (16+ km)
Ceiling:6000 feet AGL
Clouds: broken clouds at 6000 feet AGL, broken clouds at 13000 feet AGL, overcast cloud deck at 25000 feet AGL

TAF for:PANC (Anchorage Intl, AK, US) issued at 1137 UTC 23 Mar 2019
Text:PANC 231137Z 2312/2418 VRB05KT P6SM BKN060 OVC140
Forecast period:1200 UTC 23 March 2019 to 0000 UTC 24 March 2019
Forecast type:FROM: standard forecast or significant change
Winds:variable direction winds at 6 MPH (5 knots; 2.6 m/s)
Visibility:6 or more sm (10+ km)
Ceiling:6000 feet AGL
Clouds: broken clouds at 6000 feet AGL, overcast cloud deck at 14000 feet AGL
Text:FM240000 VRB05KT P6SM FEW030 OVC050
Forecast period:0000 to 0600 UTC 24 March 2019
Forecast type:FROM: standard forecast or significant change
Winds:variable direction winds at 6 MPH (5 knots; 2.6 m/s)
Visibility:6 or more sm (10+ km)
Ceiling:5000 feet AGL
Clouds: few clouds at 3000 feet AGL, overcast cloud deck at 5000 feet AGL
Text:FM240600 16015G25KT P6SM SCT050 BKN090
Forecast period:0600 to 0900 UTC 24 March 2019
Forecast type:FROM: standard forecast or significant change
Winds:from the SSE (160 degrees) at 17 MPH (15 knots; 7.7 m/s) gusting to 29 MPH (25 knots; 12.9 m/s)
Visibility:6 or more sm (10+ km)
Ceiling:9000 feet AGL
Clouds: scattered clouds at 5000 feet AGL, broken clouds at 9000 feet AGL
Text:FM240900 15006KT P6SM BKN100
Forecast period:0900 to 1800 UTC 24 March 2019
Forecast type:FROM: standard forecast or significant change
Winds:from the SSE (150 degrees) at 7 MPH (6 knots; 3.1 m/s)
Visibility:6 or more sm (10+ km)
Ceiling:10000 feet AGL
Clouds: broken clouds at 10000 feet AGL